Share

Lindsay, MT (59339)

MesoWest LINDSAY 1 MT US SCAN (MLDSM8) Elev 2680 ft | 47.21 °N, 105.19 °W | Change Station

Current weather conditions updated 5 hours ago

Partly Cloudy
Partly Cloudy
32.0 °F
Feels Like 26 °F
N
7.0
Wind Variable Wind from ESE
Sunrise 6:07 AM
Sunset 7:54 PM
Moon Waning Gibbous

Today is forecast to be Warmer than yesterday. Showers.

Pressure 29.70 in
Visibility 10.0 miles
Clouds Few 11000 ft
Windchill 26 °F
Dew Point 28.0 °F
Humidity 88%
Rainfall -999.00 in
Snow Depth Not available.
UV 6 out of 16
Pollen 9.20 out of 12
Air Quality Not available.
Flu Activity Sporadic
METAR KGDV 181655Z AUTO 12011KT 10SM FEW110 13/02 A2970 RMK AO1

More Conditions Fewer Conditions

Pressure 29.70 in
Visibility 10.0 miles
Clouds Few 11000 ft
Windchill 26 °F
Dew Point 28.0 °F
Humidity 88%
Rainfall -999.00 in
Snow Depth Not available.
UV 6 out of 16
Pollen 9.20 out of 12
Air Quality Not available.
Flu Activity Sporadic
METAR KGDV 181655Z AUTO 12011KT 10SM FEW110 13/02 A2970 RMK AO1

More Conditions Fewer Conditions

10-Day Weather Forecast

Almanac

Astronomy

Apr. 18, 2014 Rise Set
Actual Time 6:07 AM MDT 7:54 PM MDT
Civil Twilight 5:34 AM MDT 8:26 PM MDT
Nautical Twilight 4:55 AM MDT 9:06 PM MDT
Astronomical Twilight 4:11 AM MDT 9:50 PM MDT
Moon 11:51 PM MDT 8:22 AM MDT
Length of Visible Light 14h 51m
Length of Day
13h 47m
Tomorrow will be 3m 12s longer.
Waning Gibbous, 87% of the Moon is Illuminated
Today
Waning Gibbous
Apr 22
Last Quarter
Apr 29
New
May 6
First Quarter
May 14
Full

Today's Extremes

State Highs State Lows

Community

  • What's for Lunch?
    What's for Lunch?
  • SUNRISE THROUGH THE TREES.
    SUNRISE THROUGH THE TREES.
  • Dog Wood Blossoms
    Dog Wood Blossoms
  • Morning Light
    Morning Light
  • New Day
    New Day

WunderPhotos

Upload Photos

1,702,417 photos uploaded!

Nearby

Snow Depth

Station Depth Elevation
Crystal Lake 57 in 6050 ft
Rocky Boy 9 in 4700 ft
Cole Creek 79 in 7850 ft
Daisy Peak 50 in 7600 ft
Burnt Mountain 31 in 5880 ft

Coastal Water Temperatures

Place Temperature
No Stations Reporting

Earthquake Activity

City Distance Mag. Time & Date
No recent earthquake activity has been reported nearby.
Minimum magnitude displayed is 2.5.

Nearby Weather Stations

Station Location Temp. Windchill Dew Point Humidity Wind Precip. Elev Updated Type
MesoWest Lindsay Divide MT-200 MP 296.5 , Lindsay, MT 34 °F 25 °F 28 °F 80% East  at  14 mph 0.00 in / hr 3199 ft 7:09 AM MDT MADIS
APRSWXNET Glendive MT , Glendive, MT 56 °F - 37 °F 49% SE  at  6 mph 0.00 in / hr 2208 ft 10:34 AM MDT MADIS
SE Bloomfield, Bloomfield, MT 52.1 °F - 36 °F 55% ESE  at  16.0 mph 0.00 in / hr 2736 ft 11:02 AM MDT Rapid Fire

Show More Stations Show Fewer Stations

What do you think?

We're not finished. Please let us know what you like, what you don't like, and what you are still missing.